createdAt,value
2022-11-02T00:00:53.171Z,14.53
2022-11-02T00:03:20.775Z,14.43
2022-11-02T00:05:48.097Z,14.57
2022-11-02T00:08:15.468Z,14.56
2022-11-02T00:10:43.054Z,14.55
2022-11-02T00:13:10.360Z,14.58
2022-11-02T00:15:37.938Z,14.68
2022-11-02T00:18:08.561Z,14.75
2022-11-02T00:20:37.646Z,14.79
2022-11-02T00:23:07.611Z,14.77
2022-11-02T00:25:46.818Z,14.92
2022-11-02T00:28:14.671Z,14.98
2022-11-02T00:30:42.600Z,14.91
2022-11-02T00:33:10.275Z,14.83
2022-11-02T00:35:38.070Z,14.76
2022-11-02T00:38:06.115Z,14.78
2022-11-02T00:40:33.727Z,14.59
2022-11-02T00:43:01.204Z,14.65
2022-11-02T00:45:28.802Z,14.65
2022-11-02T00:47:56.112Z,14.65
2022-11-02T00:50:23.494Z,14.69
2022-11-02T00:52:51.230Z,14.73
2022-11-02T00:55:18.989Z,14.80
2022-11-02T00:57:46.330Z,14.84
2022-11-02T01:00:14.937Z,14.78
2022-11-02T01:02:42.942Z,14.68
2022-11-02T01:05:11.109Z,14.60
2022-11-02T01:07:38.882Z,14.56
2022-11-02T01:10:07.341Z,14.73
2022-11-02T01:12:37.452Z,14.70
2022-11-02T01:15:07.168Z,14.68
2022-11-02T01:17:34.783Z,14.68
2022-11-02T01:20:05.835Z,14.61
2022-11-02T01:22:33.522Z,14.65
2022-11-02T01:25:00.856Z,14.67
2022-11-02T01:27:28.141Z,14.65
2022-11-02T01:29:55.780Z,14.54
2022-11-02T01:32:23.083Z,14.61
2022-11-02T01:34:50.385Z,14.66
2022-11-02T01:37:17.963Z,14.64
2022-11-02T01:39:45.267Z,14.62
2022-11-02T01:42:20.556Z,14.65
2022-11-02T01:44:48.245Z,14.75
2022-11-02T01:47:28.848Z,14.79
2022-11-02T01:50:09.705Z,14.66
2022-11-02T01:52:38.076Z,14.65
2022-11-02T01:55:21.740Z,14.59
2022-11-02T01:57:53.850Z,14.71
2022-11-02T02:00:21.740Z,14.69
2022-11-02T02:02:53.306Z,14.75
2022-11-02T02:05:22.566Z,14.65
2022-11-02T02:07:51.650Z,14.82
2022-11-02T02:10:19.225Z,14.71
2022-11-02T02:12:46.749Z,14.72
2022-11-02T02:15:14.936Z,14.59
2022-11-02T02:18:02.402Z,14.67
2022-11-02T02:21:08.239Z,14.75
2022-11-02T02:24:06.946Z,14.76
2022-11-02T02:27:05.175Z,14.64
2022-11-02T02:29:45.908Z,14.74
2022-11-02T02:32:19.165Z,14.81
2022-11-02T02:35:19.347Z,14.58
2022-11-02T02:38:00.051Z,14.71
2022-11-02T02:40:50.884Z,14.47
2022-11-02T02:43:26.210Z,14.44
2022-11-02T02:46:24.123Z,14.47
2022-11-02T02:48:53.026Z,14.56
2022-11-02T02:51:34.173Z,14.50
2022-11-02T02:54:13.750Z,14.40
2022-11-02T02:59:29.378Z,14.39
2022-11-02T03:01:58.244Z,14.54
2022-11-02T03:04:26.148Z,14.51
2022-11-02T03:06:56.784Z,14.48
2022-11-02T03:09:24.309Z,14.50
2022-11-02T03:12:04.604Z,14.47
2022-11-02T03:14:44.024Z,14.40
2022-11-02T03:17:20.502Z,14.37
2022-11-02T03:20:07.195Z,14.47
2022-11-02T03:22:40.463Z,14.41
2022-11-02T03:25:38.398Z,14.42
2022-11-02T03:28:17.449Z,14.44
2022-11-02T03:30:50.054Z,14.50
2022-11-02T03:33:22.682Z,14.45
2022-11-02T03:35:50.203Z,14.43
2022-11-02T03:38:23.226Z,14.40
2022-11-02T03:40:53.048Z,14.49
2022-11-02T03:43:21.165Z,14.43
2022-11-02T03:45:55.203Z,14.47
2022-11-02T03:48:26.674Z,14.48
2022-11-02T03:50:54.803Z,14.48
2022-11-02T03:53:25.479Z,14.48
2022-11-02T03:55:57.014Z,14.40
2022-11-02T03:58:24.380Z,14.42
2022-11-02T04:00:56.258Z,14.55
2022-11-02T04:03:24.894Z,14.45
2022-11-02T04:05:52.804Z,14.38
2022-11-02T04:08:29.356Z,14.35
2022-11-02T04:11:16.135Z,14.46
2022-11-02T04:14:02.497Z,14.55
2022-11-02T04:16:30.674Z,14.50
2022-11-02T04:19:17.118Z,14.50
2022-11-02T04:22:05.366Z,14.43
2022-11-02T04:24:51.868Z,14.45
2022-11-02T04:27:21.229Z,14.53
2022-11-02T04:29:49.273Z,14.62
2022-11-02T04:32:39.955Z,14.77
2022-11-02T04:35:08.650Z,14.70
2022-11-02T04:38:01.476Z,14.77
2022-11-02T04:40:29.622Z,14.50
2022-11-02T04:42:57.303Z,14.62
2022-11-02T04:45:24.830Z,14.73
2022-11-02T04:47:53.147Z,14.55
2022-11-02T04:50:20.515Z,14.66
2022-11-02T04:52:58.257Z,14.78
2022-11-02T04:55:26.493Z,14.88
2022-11-02T04:57:53.997Z,14.79
2022-11-02T05:00:22.378Z,14.76
2022-11-02T05:02:50.958Z,14.71
2022-11-02T05:05:19.939Z,14.76
2022-11-02T05:07:48.109Z,14.82
2022-11-02T05:10:15.974Z,14.77
2022-11-02T05:12:44.742Z,14.82
2022-11-02T05:15:12.083Z,14.91
2022-11-02T05:17:39.706Z,14.83
2022-11-02T05:20:08.669Z,14.86
2022-11-02T05:22:36.006Z,14.91
2022-11-02T05:25:03.798Z,14.91
2022-11-02T05:27:31.425Z,14.66
2022-11-02T05:29:59.934Z,14.69
2022-11-02T05:32:28.022Z,14.81
2022-11-02T05:34:55.508Z,14.73
2022-11-02T05:37:23.068Z,14.72
2022-11-02T05:39:50.797Z,14.79
2022-11-02T05:42:18.245Z,14.89
2022-11-02T05:44:45.861Z,14.89
2022-11-02T05:47:14.090Z,14.95
2022-11-02T05:49:41.397Z,15.02
2022-11-02T05:52:08.837Z,14.90
2022-11-02T05:54:36.410Z,15.03
2022-11-02T05:57:03.752Z,15.14
2022-11-02T05:59:31.165Z,14.97
2022-11-02T06:01:58.807Z,15.06
2022-11-02T06:04:26.450Z,15.24
2022-11-02T06:06:53.758Z,15.38
2022-11-02T06:09:21.125Z,15.28
2022-11-02T06:11:48.691Z,15.14
2022-11-02T06:14:16.076Z,15.32
2022-11-02T06:16:43.403Z,15.19
2022-11-02T06:19:11.002Z,15.17
2022-11-02T06:21:38.342Z,15.17
2022-11-02T06:24:05.775Z,15.31
2022-11-02T06:26:33.385Z,15.04
2022-11-02T06:29:00.703Z,15.13
2022-11-02T06:31:28.087Z,15.29
2022-11-02T06:33:55.645Z,15.22
2022-11-02T06:36:23.015Z,15.36
2022-11-02T06:38:51.160Z,15.35
2022-11-02T06:41:18.727Z,15.25
2022-11-02T06:43:46.041Z,15.29
2022-11-02T06:46:13.370Z,15.45
2022-11-02T06:48:40.974Z,15.51
2022-11-02T06:51:08.363Z,15.59
2022-11-02T06:53:35.692Z,15.52
2022-11-02T06:56:03.315Z,15.67
2022-11-02T06:58:30.938Z,15.57
2022-11-02T07:01:04.049Z,15.57
2022-11-02T07:03:31.653Z,15.68
2022-11-02T07:05:59.174Z,15.69
2022-11-02T07:08:27.728Z,15.74
2022-11-02T07:10:55.831Z,15.76
2022-11-02T07:13:23.147Z,15.79
2022-11-02T07:15:54.519Z,15.88
2022-11-02T07:18:22.499Z,15.87
2022-11-02T07:20:50.113Z,15.88
2022-11-02T07:23:17.479Z,15.90
2022-11-02T07:25:45.054Z,16.02
2022-11-02T07:28:12.379Z,16.04
2022-11-02T07:30:39.925Z,15.97
2022-11-02T07:33:07.790Z,16.10
2022-11-02T07:35:35.510Z,15.82
2022-11-02T07:38:07.123Z,15.65
2022-11-02T07:40:36.039Z,16.13
2022-11-02T07:43:04.470Z,15.99
2022-11-02T07:45:33.045Z,15.91
2022-11-02T07:48:00.615Z,16.03
2022-11-02T07:50:28.498Z,16.13
2022-11-02T07:52:57.939Z,16.36
2022-11-02T07:55:27.733Z,16.42
2022-11-02T07:57:59.118Z,16.34
2022-11-02T08:00:28.115Z,16.07
2022-11-02T08:03:00.003Z,16.28
2022-11-02T08:05:29.157Z,16.10
2022-11-02T08:08:01.764Z,16.10
2022-11-02T08:10:35.279Z,16.20
2022-11-02T08:13:08.431Z,16.40
2022-11-02T08:15:35.826Z,16.38
2022-11-02T08:18:17.404Z,16.34
2022-11-02T08:20:46.250Z,16.34
2022-11-02T08:23:15.527Z,16.34
2022-11-02T08:25:45.534Z,16.46
2022-11-02T08:28:15.999Z,16.42
2022-11-02T08:30:43.393Z,16.67
2022-11-02T08:33:13.315Z,16.44
2022-11-02T08:35:41.838Z,16.56
2022-11-02T08:38:09.578Z,16.42
2022-11-02T08:40:37.639Z,16.42
2022-11-02T08:43:07.559Z,16.64
2022-11-02T08:46:12.844Z,16.72
2022-11-02T08:48:24.366Z,16.73
2022-11-02T08:50:51.770Z,16.87
2022-11-02T08:53:19.110Z,16.81
2022-11-02T08:55:46.813Z,16.75
2022-11-02T08:58:14.138Z,16.95
2022-11-02T09:00:41.471Z,16.86
2022-11-02T09:03:14.198Z,17.07
2022-11-02T09:05:43.831Z,17.32
2022-11-02T09:08:14.081Z,17.22
2022-11-02T09:10:41.566Z,17.25
2022-11-02T09:13:11.842Z,17.45
2022-11-02T09:15:39.859Z,17.42
2022-11-02T09:18:08.442Z,17.53
2022-11-02T09:20:35.940Z,17.69
2022-11-02T09:23:03.633Z,17.77
2022-11-02T09:25:30.952Z,17.87
2022-11-02T09:27:58.280Z,17.77
2022-11-02T09:30:27.508Z,17.88
2022-11-02T09:32:56.486Z,17.58
2022-11-02T09:35:24.875Z,17.72
2022-11-02T09:37:52.462Z,17.85
2022-11-02T09:40:22.543Z,17.80
2022-11-02T09:42:59.063Z,17.81
2022-11-02T09:45:26.768Z,17.97
2022-11-02T09:51:02.433Z,18.14
2022-11-02T09:53:36.545Z,18.13
2022-11-02T09:56:05.592Z,18.03
2022-11-02T09:58:38.034Z,18.02
2022-11-02T10:01:29.888Z,18.05
2022-11-02T10:04:03.450Z,17.76
2022-11-02T10:06:31.575Z,17.91
2022-11-02T10:09:05.846Z,17.97
2022-11-02T10:12:06.698Z,17.85
2022-11-02T10:14:36.858Z,17.91
2022-11-02T10:17:17.774Z,17.97
2022-11-02T10:19:50.006Z,17.93
2022-11-02T10:22:17.318Z,18.34
2022-11-02T10:24:46.869Z,18.14
2022-11-02T10:27:23.563Z,17.98
2022-11-02T10:30:16.187Z,18.20
2022-11-02T10:32:45.171Z,18.34
2022-11-02T10:35:34.005Z,18.22
2022-11-02T10:38:15.000Z,18.11
2022-11-02T10:40:58.524Z,18.24
2022-11-02T10:43:47.110Z,18.26
2022-11-02T10:46:29.204Z,18.36
2022-11-02T10:49:14.645Z,18.52
2022-11-02T10:51:42.370Z,18.50
2022-11-02T10:54:17.707Z,18.49
2022-11-02T10:56:50.230Z,18.67
2022-11-02T10:59:20.163Z,18.86
2022-11-02T11:01:56.539Z,19.03
2022-11-02T11:04:28.520Z,19.14
2022-11-02T11:06:56.846Z,19.26
2022-11-02T11:09:30.628Z,19.19
2022-11-02T11:12:12.470Z,19.56
2022-11-02T11:20:34.669Z,19.67
2022-11-02T11:23:17.382Z,19.42
2022-11-02T11:26:00.621Z,19.68
2022-11-02T11:28:53.190Z,19.77
2022-11-02T11:31:21.122Z,19.90
2022-11-02T11:33:51.843Z,20.00
2022-11-02T11:36:30.769Z,19.98
2022-11-02T11:39:01.699Z,20.02
2022-11-02T11:41:31.353Z,20.07
2022-11-02T11:44:00.453Z,20.32
2022-11-02T11:46:46.947Z,20.17
2022-11-02T11:49:55.463Z,19.95
2022-11-02T11:52:29.882Z,19.92
2022-11-02T11:55:19.173Z,20.03
2022-11-02T11:57:46.627Z,20.02
2022-11-02T12:00:28.990Z,20.13
2022-11-02T12:03:22.969Z,20.27
2022-11-02T12:06:04.362Z,20.27
2022-11-02T12:08:43.800Z,20.25
2022-11-02T12:11:23.707Z,20.32
2022-11-02T12:14:13.587Z,20.36
2022-11-02T12:17:02.670Z,20.53
2022-11-02T12:19:55.423Z,20.68
2022-11-02T12:22:30.137Z,20.72
2022-11-02T12:25:27.071Z,20.80
2022-11-02T12:28:19.318Z,20.67
2022-11-02T12:31:02.386Z,20.70
2022-11-02T12:33:58.437Z,20.69
2022-11-02T12:36:29.643Z,20.86
2022-11-02T12:39:12.941Z,20.96
2022-11-02T12:42:19.388Z,20.83
2022-11-02T12:45:04.844Z,20.65
2022-11-02T12:48:01.286Z,20.87
2022-11-02T12:50:31.487Z,20.84
2022-11-02T12:53:02.278Z,20.87
2022-11-02T12:55:38.122Z,20.80
2022-11-02T12:58:08.492Z,20.86
2022-11-02T13:00:37.791Z,20.77
2022-11-02T13:03:35.439Z,21.01
2022-11-02T13:06:07.972Z,20.98
2022-11-02T13:08:49.924Z,21.08
2022-11-02T13:11:38.262Z,20.83
2022-11-02T13:14:12.972Z,20.90
2022-11-02T13:17:05.469Z,20.99
2022-11-02T13:19:42.771Z,20.86
2022-11-02T13:22:12.176Z,20.94
2022-11-02T13:24:43.815Z,21.02
2022-11-02T13:27:36.547Z,20.99
2022-11-02T13:30:10.058Z,21.04
2022-11-02T13:32:46.570Z,21.15
2022-11-02T13:35:27.667Z,21.11
2022-11-02T13:38:04.096Z,21.13
2022-11-02T13:40:38.389Z,20.96
2022-11-02T13:43:09.236Z,21.01
2022-11-02T13:45:52.017Z,21.04
2022-11-02T13:48:22.700Z,20.83
2022-11-02T13:50:52.186Z,20.85
2022-11-02T13:53:25.567Z,20.92
2022-11-02T13:56:01.842Z,20.84
2022-11-02T13:58:47.030Z,21.00
2022-11-02T14:01:18.256Z,20.79
2022-11-02T14:03:51.362Z,20.81
2022-11-02T14:06:19.804Z,20.69
2022-11-02T14:08:51.367Z,20.67
2022-11-02T14:11:18.529Z,20.62
2022-11-02T14:13:54.684Z,20.65
2022-11-02T14:16:47.273Z,20.58
2022-11-02T14:19:19.092Z,20.35
2022-11-02T14:21:59.824Z,20.32
2022-11-02T14:24:33.451Z,20.36
2022-11-02T14:27:02.403Z,20.38
2022-11-02T14:29:47.738Z,20.32
2022-11-02T14:32:19.699Z,20.35
2022-11-02T14:35:17.835Z,20.28
2022-11-02T14:38:16.482Z,20.32
2022-11-02T14:40:58.690Z,20.30
2022-11-02T14:43:41.835Z,20.27
2022-11-02T14:46:47.742Z,20.18
2022-11-02T14:49:25.082Z,20.12
2022-11-02T14:52:03.870Z,20.12
2022-11-02T14:54:37.677Z,20.09
2022-11-02T14:57:07.702Z,20.17
2022-11-02T14:59:40.592Z,20.13
2022-11-02T15:02:24.416Z,20.02
2022-11-02T15:04:55.229Z,19.98
2022-11-02T15:08:02.138Z,19.99
2022-11-02T15:10:32.724Z,20.05
2022-11-02T15:13:18.430Z,19.91
2022-11-02T15:15:52.047Z,19.90
2022-11-02T15:18:34.855Z,19.85
2022-11-02T15:21:11.755Z,19.87
2022-11-02T15:23:59.987Z,19.84
2022-11-02T15:26:51.028Z,19.73
2022-11-02T15:29:32.975Z,19.75
2022-11-02T15:32:01.359Z,19.73
2022-11-02T15:34:35.350Z,19.76
2022-11-02T15:37:03.532Z,19.65
2022-11-02T15:39:31.533Z,19.59
2022-11-02T15:42:05.232Z,19.60
2022-11-02T15:44:57.420Z,19.54
2022-11-02T15:47:39.055Z,19.54
2022-11-02T15:50:25.290Z,19.47
2022-11-02T15:53:23.500Z,19.39
2022-11-02T15:55:59.608Z,19.31
2022-11-02T15:58:46.763Z,19.35
2022-11-02T16:01:25.343Z,19.33
2022-11-02T16:03:59.656Z,19.27
2022-11-02T16:06:29.787Z,19.25
2022-11-02T16:09:00.091Z,19.10
2022-11-02T16:11:28.685Z,19.01
2022-11-02T16:14:16.048Z,18.98
2022-11-02T16:16:50.611Z,18.92
2022-11-02T16:19:21.620Z,18.77
2022-11-02T16:21:49.895Z,18.64
2022-11-02T16:24:17.958Z,18.60
2022-11-02T16:26:46.574Z,18.54
2022-11-02T16:29:30.054Z,18.37
2022-11-02T16:31:59.649Z,18.31
2022-11-02T16:34:30.093Z,18.22
2022-11-02T16:36:57.977Z,18.19
2022-11-02T16:39:28.859Z,18.12
2022-11-02T16:41:58.567Z,18.07
2022-11-02T16:44:31.265Z,18.00
2022-11-02T16:47:19.090Z,18.05
2022-11-02T16:49:52.188Z,17.97
2022-11-02T16:52:22.652Z,17.93
2022-11-02T16:54:49.991Z,17.84
2022-11-02T16:57:39.939Z,17.87
2022-11-02T17:00:17.645Z,17.68
2022-11-02T17:02:45.280Z,17.61
2022-11-02T17:05:21.673Z,17.45
2022-11-02T17:08:05.267Z,17.47
2022-11-02T17:10:34.545Z,17.38
2022-11-02T17:13:03.495Z,17.23
2022-11-02T17:15:34.630Z,17.13
2022-11-02T17:18:08.818Z,17.05
2022-11-02T17:20:38.283Z,17.04
2022-11-02T17:23:08.210Z,17.10
2022-11-02T17:25:37.477Z,16.98
2022-11-02T17:28:33.682Z,17.02
2022-11-02T17:31:01.757Z,16.84
2022-11-02T17:33:31.003Z,16.75
2022-11-02T17:36:06.756Z,16.60
2022-11-02T17:38:34.913Z,16.69
2022-11-02T17:41:02.284Z,16.69
2022-11-02T17:43:29.598Z,16.59
2022-11-02T17:45:58.297Z,16.56
2022-11-02T17:48:28.738Z,16.52
2022-11-02T17:50:56.740Z,16.44
2022-11-02T17:53:24.485Z,16.41
2022-11-02T17:55:52.109Z,16.40
2022-11-02T17:58:19.425Z,16.21
2022-11-02T18:00:47.122Z,16.35
2022-11-02T18:03:19.303Z,16.33
2022-11-02T18:05:50.158Z,16.30
2022-11-02T18:08:19.485Z,16.27
2022-11-02T18:10:47.865Z,16.37
2022-11-02T18:13:20.091Z,16.43
2022-11-02T18:15:47.967Z,16.34
2022-11-02T18:18:15.445Z,16.26
2022-11-02T18:20:42.773Z,16.28
2022-11-02T18:23:15.437Z,16.26
2022-11-02T18:25:42.905Z,16.23
2022-11-02T18:28:10.527Z,16.26
2022-11-02T18:30:42.226Z,16.15
2022-11-02T18:33:13.425Z,16.23
2022-11-02T18:35:42.503Z,16.20
2022-11-02T18:38:10.243Z,16.40
2022-11-02T18:40:37.583Z,16.39
2022-11-02T18:43:05.338Z,16.49
2022-11-02T18:45:33.379Z,16.55
2022-11-02T18:48:00.976Z,16.52
2022-11-02T18:50:28.296Z,16.64
2022-11-02T18:52:55.876Z,16.63
2022-11-02T18:55:23.218Z,16.62
2022-11-02T18:57:50.910Z,16.67
2022-11-02T19:00:18.860Z,16.62
2022-11-02T19:02:46.217Z,16.22
2022-11-02T19:05:32.023Z,16.49
2022-11-02T19:08:18.963Z,16.33
2022-11-02T19:10:47.355Z,16.11
2022-11-02T19:13:15.250Z,16.36
2022-11-02T19:15:43.044Z,16.24
2022-11-02T19:18:10.454Z,16.26
2022-11-02T19:20:38.063Z,16.35
2022-11-02T19:23:05.503Z,16.27
2022-11-02T19:25:32.924Z,16.35
2022-11-02T19:28:00.529Z,16.19
2022-11-02T19:30:27.861Z,16.15
2022-11-02T19:32:55.189Z,16.25
2022-11-02T19:35:22.761Z,16.46
2022-11-02T19:37:50.079Z,16.47
2022-11-02T19:40:17.390Z,16.28
2022-11-02T19:42:44.967Z,16.10
2022-11-02T19:45:17.777Z,16.14
2022-11-02T19:47:45.401Z,16.06
2022-11-02T19:50:12.837Z,16.09
2022-11-02T19:52:40.183Z,16.10
2022-11-02T19:55:08.062Z,15.99
2022-11-02T19:57:35.446Z,15.88
2022-11-02T20:00:03.042Z,16.04
2022-11-02T20:02:36.399Z,16.10
2022-11-02T20:05:04.308Z,16.12
2022-11-02T20:07:31.631Z,16.13
2022-11-02T20:09:59.845Z,16.09
2022-11-02T20:12:27.590Z,16.13
2022-11-02T20:14:54.903Z,16.12
2022-11-02T20:17:31.935Z,16.15
2022-11-02T20:20:06.437Z,16.12
2022-11-02T20:22:35.310Z,16.11
2022-11-02T20:25:02.610Z,16.00
2022-11-02T20:27:30.540Z,16.09
2022-11-02T20:29:57.942Z,16.16
2022-11-02T20:32:25.313Z,16.21
2022-11-02T20:34:52.907Z,16.20
2022-11-02T20:37:20.220Z,16.16
2022-11-02T20:39:47.637Z,16.03
2022-11-02T20:42:15.407Z,15.81
2022-11-02T20:44:48.957Z,15.79
2022-11-02T20:47:16.552Z,15.85
2022-11-02T20:49:50.437Z,15.92
2022-11-02T20:52:18.984Z,15.82
2022-11-02T20:54:46.573Z,15.67
2022-11-02T20:57:13.860Z,15.59
2022-11-02T20:59:41.442Z,15.64
2022-11-02T21:02:12.395Z,15.55
2022-11-02T21:04:39.963Z,15.63
2022-11-02T21:07:07.904Z,15.62
2022-11-02T21:09:35.605Z,15.65
2022-11-02T21:12:21.350Z,15.62
2022-11-02T21:14:49.479Z,15.58
2022-11-02T21:17:16.790Z,15.53
2022-11-02T21:19:44.210Z,15.61
2022-11-02T21:22:12.282Z,15.55
2022-11-02T21:24:39.605Z,15.54
2022-11-02T21:27:06.908Z,15.61
2022-11-02T21:29:34.896Z,15.54
2022-11-02T21:32:02.190Z,15.39
2022-11-02T21:34:29.516Z,15.43
2022-11-02T21:36:57.140Z,15.37
2022-11-02T21:39:24.468Z,15.46
2022-11-02T21:41:51.804Z,15.11
2022-11-02T21:44:19.374Z,15.28
2022-11-02T21:46:46.929Z,15.21
2022-11-02T21:49:14.241Z,15.08
2022-11-02T21:51:42.848Z,15.29
2022-11-02T21:54:11.045Z,15.29
2022-11-02T21:56:39.680Z,15.24
2022-11-02T21:59:09.093Z,15.28
2022-11-02T22:01:46.862Z,15.13
2022-11-02T22:04:25.670Z,15.16
2022-11-02T22:06:53.544Z,15.30
2022-11-02T22:09:21.519Z,15.44
2022-11-02T22:12:09.192Z,15.07
2022-11-02T22:14:37.761Z,15.17
2022-11-02T22:17:16.514Z,15.23
2022-11-02T22:19:50.763Z,15.35
2022-11-02T22:22:18.449Z,15.14
2022-11-02T22:24:45.762Z,15.35
2022-11-02T22:27:13.318Z,15.35
2022-11-02T22:29:40.623Z,15.39
2022-11-02T22:32:08.044Z,15.48
2022-11-02T22:34:35.602Z,15.55
2022-11-02T22:37:21.394Z,15.61
2022-11-02T22:39:48.973Z,15.54
2022-11-02T22:42:16.290Z,15.58
2022-11-02T22:44:43.604Z,15.64
2022-11-02T22:47:11.162Z,15.69
2022-11-02T22:49:38.478Z,15.60
2022-11-02T22:52:05.773Z,15.65
2022-11-02T22:54:33.353Z,15.53
2022-11-02T22:57:00.917Z,15.61
2022-11-02T22:59:28.213Z,15.57
2022-11-02T23:01:55.919Z,15.64
2022-11-02T23:04:23.348Z,15.42
2022-11-02T23:06:50.694Z,15.59
2022-11-02T23:09:18.263Z,15.48
2022-11-02T23:11:45.575Z,15.46
2022-11-02T23:14:14.545Z,15.43
2022-11-02T23:16:44.275Z,15.31
2022-11-02T23:19:32.945Z,15.25
2022-11-02T23:22:20.624Z,15.12
2022-11-02T23:25:08.136Z,15.14
2022-11-02T23:27:56.527Z,14.97
2022-11-02T23:30:44.537Z,15.10
2022-11-02T23:33:12.183Z,15.11
2022-11-02T23:35:57.905Z,15.16
2022-11-02T23:38:45.447Z,15.09
2022-11-02T23:41:12.789Z,14.98
2022-11-02T23:43:40.374Z,15.06
2022-11-02T23:46:07.689Z,14.89
2022-11-02T23:48:34.994Z,14.86
2022-11-02T23:51:21.242Z,14.91
2022-11-02T23:54:07.053Z,14.87
2022-11-02T23:56:43.741Z,14.80
2022-11-02T23:59:12.384Z,14.83
